Holden Village, Washington
Current Conditions -  °F | °C
As of 2:34 PM on Friday 31 Oct 2014 (Local Time) from KEAT Reporting Station
Haze Haze  
Wind Chill: 53°   Ceiling: 400
Heat Index: 53°   Visibility: 5mi
Dew Point: 50°   Wind: 3mph
Humidity: 89%   Direction: 330°NNW
Pressure: 29.72"   Gusts: NA
Location:  47.9044°N, 120.153°W
Report Text: KEAT 312134Z AUTO 33003KT 5SM BR BKN004 BKN120 12/10 A2972 RMK AO2 RAE07 P0000 T01170100
Loading
Personal Weather Stations






























Interactive Weather Map
Tropical Storm Tracking
New forecast layout! Learn more

10-Day Weather Forecast

Advertisements
Track Severe Weather on mobile